createdAt,value
2018-04-25T00:00:05.347Z,3.97
2018-04-25T00:02:33.823Z,3.70
2018-04-25T00:05:01.541Z,4.23
2018-04-25T00:07:29.193Z,4.13
2018-04-25T00:09:56.895Z,3.93
2018-04-25T00:12:24.570Z,3.90
2018-04-25T00:14:52.238Z,3.70
2018-04-25T00:17:19.966Z,3.90
2018-04-25T00:19:47.643Z,3.40
2018-04-25T00:22:15.279Z,3.60
2018-04-25T00:24:43.712Z,3.53
2018-04-25T00:27:11.389Z,3.60
2018-04-25T00:29:39.011Z,4.17
2018-04-25T00:32:06.688Z,3.40
2018-04-25T00:34:34.399Z,3.40
2018-04-25T00:37:02.806Z,3.40
2018-04-25T00:39:30.506Z,3.60
2018-04-25T00:41:58.218Z,3.83
2018-04-25T00:44:26.033Z,4.10
2018-04-25T00:46:53.714Z,4.00
2018-04-25T00:49:22.202Z,4.20
2018-04-25T00:51:50.669Z,4.37
2018-04-25T00:54:18.417Z,3.60
2018-04-25T00:56:46.152Z,4.23
2018-04-25T00:59:13.856Z,4.37
2018-04-25T01:01:41.574Z,4.10
2018-04-25T01:04:09.307Z,3.27
2018-04-25T01:06:37.036Z,3.83
2018-04-25T01:09:04.824Z,3.90
2018-04-25T01:11:33.293Z,4.47
2018-04-25T01:14:00.974Z,3.97
2018-04-25T01:16:28.705Z,3.80
2018-04-25T01:18:56.433Z,4.10
2018-04-25T01:21:24.129Z,3.60
2018-04-25T01:23:51.870Z,3.87
2018-04-25T01:26:19.615Z,4.03
2018-04-25T01:28:49.254Z,3.80
2018-04-25T01:31:20.544Z,4.03
2018-04-25T01:33:54.967Z,3.63
2018-04-25T01:36:32.238Z,4.77
2018-04-25T01:39:02.855Z,4.00
2018-04-25T01:41:31.319Z,4.80
2018-04-25T01:43:59.055Z,4.73
2018-04-25T01:46:28.583Z,4.80
2018-04-25T01:49:05.942Z,4.10
2018-04-25T01:51:45.324Z,5.17
2018-04-25T01:54:24.715Z,4.60
2018-04-25T01:57:04.131Z,4.70
2018-04-25T01:59:43.694Z,4.30
2018-04-25T02:02:10.853Z,4.13
2018-04-25T02:04:38.485Z,5.00
2018-04-25T02:07:06.152Z,4.37
2018-04-25T02:09:33.831Z,4.50
2018-04-25T02:12:01.471Z,4.67
2018-04-25T02:14:29.166Z,4.70
2018-04-25T02:16:56.819Z,5.20
2018-04-25T02:19:24.453Z,4.00
2018-04-25T02:21:52.139Z,4.37
2018-04-25T02:24:19.799Z,4.63
2018-04-25T02:26:47.441Z,4.43
2018-04-25T02:29:15.095Z,4.73
2018-04-25T02:31:42.749Z,3.70
2018-04-25T02:34:10.375Z,4.27
2018-04-25T02:36:38.056Z,4.37
2018-04-25T02:39:05.714Z,4.63
2018-04-25T02:41:33.329Z,4.30
2018-04-25T02:44:00.989Z,4.60
2018-04-25T02:46:29.446Z,4.00
2018-04-25T02:48:57.086Z,4.67
2018-04-25T02:51:24.758Z,4.60
2018-04-25T02:53:52.423Z,4.60
2018-04-25T02:56:20.049Z,4.03
2018-04-25T02:58:47.788Z,4.43
2018-04-25T03:01:15.431Z,4.40
2018-04-25T03:03:43.835Z,4.20
2018-04-25T03:06:11.500Z,4.30
2018-04-25T03:08:39.163Z,4.80
2018-04-25T03:11:06.802Z,5.17
2018-04-25T03:13:34.464Z,4.40
2018-04-25T03:16:02.221Z,4.20
2018-04-25T03:18:30.625Z,5.30
2018-04-25T03:20:58.292Z,4.67
2018-04-25T03:23:25.946Z,4.30
2018-04-25T03:25:54.369Z,4.10
2018-04-25T03:28:22.036Z,4.80
2018-04-25T03:30:50.463Z,5.23
2018-04-25T03:33:18.111Z,4.83
2018-04-25T03:35:45.784Z,4.33
2018-04-25T03:38:13.470Z,4.73
2018-04-25T03:40:41.099Z,4.53
2018-04-25T03:43:08.766Z,4.53
2018-04-25T03:45:37.239Z,4.67
2018-04-25T03:48:04.885Z,4.20
2018-04-25T03:50:32.566Z,4.20
2018-04-25T03:53:00.225Z,5.03
2018-04-25T03:55:27.886Z,4.83
2018-04-25T03:57:55.547Z,4.63
2018-04-25T04:00:23.209Z,5.40
2018-04-25T04:02:50.897Z,4.20
2018-04-25T04:05:18.571Z,4.93
2018-04-25T04:07:46.266Z,4.90
2018-04-25T04:10:13.911Z,4.57
2018-04-25T04:12:43.377Z,5.30
2018-04-25T04:15:11.046Z,3.90
2018-04-25T04:17:38.690Z,4.60
2018-04-25T04:20:06.364Z,4.77
2018-04-25T04:22:34.049Z,5.13
2018-04-25T04:25:02.461Z,5.83
2018-04-25T04:27:30.145Z,5.87
2018-04-25T04:29:58.680Z,5.07
2018-04-25T04:32:26.367Z,5.73
2018-04-25T04:34:54.135Z,5.50
2018-04-25T04:37:21.823Z,5.33
2018-04-25T04:39:49.466Z,5.03
2018-04-25T04:42:17.173Z,4.53
2018-04-25T04:44:45.636Z,6.07
2018-04-25T04:47:13.286Z,6.43
2018-04-25T04:49:40.939Z,6.20
2018-04-25T04:52:08.624Z,5.70
2018-04-25T04:54:36.265Z,6.30
2018-04-25T04:57:03.997Z,5.57
2018-04-25T04:59:31.675Z,5.97
2018-04-25T05:01:59.338Z,5.50
2018-04-25T05:04:27.012Z,5.07
2018-04-25T05:06:54.689Z,5.87
2018-04-25T05:09:22.345Z,5.53
2018-04-25T05:11:50.024Z,5.10
2018-04-25T05:14:17.691Z,5.90
2018-04-25T05:16:46.095Z,5.60
2018-04-25T05:19:13.754Z,5.70
2018-04-25T05:21:41.425Z,5.30
2018-04-25T05:24:09.052Z,5.77
2018-04-25T05:26:36.743Z,6.27
2018-04-25T05:29:04.392Z,5.70
2018-04-25T05:31:32.053Z,5.83
2018-04-25T05:33:59.723Z,5.53
2018-04-25T05:36:27.428Z,5.50
2018-04-25T05:38:55.103Z,6.33
2018-04-25T05:41:23.536Z,5.60
2018-04-25T05:43:51.199Z,6.40
2018-04-25T05:46:18.831Z,4.47
2018-04-25T05:48:46.499Z,5.50
2018-04-25T05:51:14.158Z,6.00
2018-04-25T05:53:41.801Z,4.87
2018-04-25T05:56:09.509Z,5.07
2018-04-25T05:58:37.223Z,5.70
2018-04-25T06:01:04.866Z,5.23
2018-04-25T06:03:33.310Z,5.47
2018-04-25T06:06:01.041Z,5.60
2018-04-25T06:08:28.676Z,5.57
2018-04-25T06:10:56.395Z,5.13
2018-04-25T06:13:24.098Z,6.03
2018-04-25T06:15:51.837Z,6.17
2018-04-25T06:18:19.506Z,5.33
2018-04-25T06:20:47.973Z,6.03
2018-04-25T06:23:15.640Z,5.83
2018-04-25T06:25:44.070Z,5.30
2018-04-25T06:28:12.229Z,5.60
2018-04-25T06:30:39.824Z,5.57
2018-04-25T06:33:07.534Z,4.70
2018-04-25T06:35:35.198Z,4.93
2018-04-25T06:38:02.923Z,4.80
2018-04-25T06:40:30.592Z,5.10
2018-04-25T06:42:58.290Z,5.70
2018-04-25T06:45:25.966Z,4.93
2018-04-25T06:47:53.697Z,4.77
2018-04-25T06:50:22.178Z,5.10
2018-04-25T06:52:49.845Z,4.70
2018-04-25T06:57:50.303Z,5.17
2018-04-25T07:00:17.978Z,5.57
2018-04-25T07:02:45.693Z,5.03
2018-04-25T07:05:14.100Z,4.33
2018-04-25T07:07:41.778Z,4.00
2018-04-25T07:10:09.437Z,5.40
2018-04-25T07:12:37.945Z,4.77
2018-04-25T07:15:05.674Z,4.00
2018-04-25T07:17:33.362Z,4.70
2018-04-25T07:20:01.063Z,4.83
2018-04-25T07:22:28.829Z,5.30
2018-04-25T07:24:56.564Z,4.67
2018-04-25T07:27:24.218Z,4.37
2018-04-25T07:29:51.886Z,5.43
2018-04-25T07:32:20.312Z,4.13
2018-04-25T07:34:47.966Z,3.73
2018-04-25T07:37:15.632Z,4.43
2018-04-25T07:39:43.306Z,3.83
2018-04-25T07:42:10.947Z,5.47
2018-04-25T07:44:38.636Z,4.90
2018-04-25T07:47:06.326Z,4.40
2018-04-25T07:49:34.748Z,4.10
2018-04-25T07:52:02.421Z,5.10
2018-04-25T07:54:30.100Z,4.60
2018-04-25T07:56:57.736Z,3.80
2018-04-25T07:59:25.411Z,4.83
2018-04-25T08:01:53.894Z,5.00
2018-04-25T08:04:21.531Z,5.40
2018-04-25T08:06:49.202Z,4.43
2018-04-25T08:09:16.858Z,5.27
2018-04-25T08:11:44.507Z,4.33
2018-04-25T08:14:23.911Z,5.10
2018-04-25T08:17:04.271Z,5.13
2018-04-25T08:19:44.652Z,5.10
2018-04-25T08:22:12.319Z,4.83
2018-04-25T08:24:39.964Z,4.70
2018-04-25T08:27:07.661Z,5.20
2018-04-25T08:29:35.333Z,5.27
2018-04-25T08:32:02.994Z,5.23
2018-04-25T08:34:31.487Z,5.20
2018-04-25T08:36:59.158Z,4.87
2018-04-25T08:39:27.586Z,4.50
2018-04-25T08:41:55.276Z,4.50
2018-04-25T08:44:22.986Z,4.80
2018-04-25T08:46:50.638Z,5.60
2018-04-25T08:49:19.076Z,4.50
2018-04-25T08:51:46.738Z,4.60
2018-04-25T08:54:14.395Z,4.70
2018-04-25T08:56:42.087Z,4.50
2018-04-25T08:59:10.532Z,5.43
2018-04-25T09:01:38.187Z,5.00
2018-04-25T09:04:05.908Z,4.47
2018-04-25T09:06:33.591Z,4.97
2018-04-25T09:09:01.230Z,5.20
2018-04-25T09:11:28.896Z,4.80
2018-04-25T09:13:56.587Z,5.27
2018-04-25T09:16:24.227Z,4.80
2018-04-25T09:18:51.895Z,4.80
2018-04-25T09:21:19.575Z,4.60
2018-04-25T09:23:47.247Z,4.17
2018-04-25T09:26:14.910Z,4.20
2018-04-25T09:28:42.610Z,4.60
2018-04-25T09:31:10.258Z,5.03
2018-04-25T09:33:38.854Z,4.50
2018-04-25T09:36:06.558Z,4.00
2018-04-25T09:38:34.199Z,4.70
2018-04-25T09:41:01.866Z,4.27
2018-04-25T09:43:29.583Z,4.30
2018-04-25T09:45:57.280Z,4.50
2018-04-25T09:48:24.937Z,4.13
2018-04-25T09:50:52.674Z,3.83
2018-04-25T09:53:20.329Z,4.10
2018-04-25T09:55:47.994Z,4.50
2018-04-25T09:58:15.670Z,4.13
2018-04-25T10:00:49.016Z,3.80
2018-04-25T10:03:22.395Z,4.20
2018-04-25T10:05:50.099Z,4.70
2018-04-25T10:08:17.806Z,4.80
2018-04-25T10:10:45.501Z,4.13
2018-04-25T10:13:13.188Z,3.90
2018-04-25T10:15:40.886Z,4.17
2018-04-25T10:18:08.576Z,4.10
2018-04-25T10:20:36.287Z,4.23
2018-04-25T10:23:03.950Z,4.20
2018-04-25T10:25:31.691Z,3.83
2018-04-25T10:27:59.283Z,3.57
2018-04-25T10:30:26.954Z,4.40
2018-04-25T10:32:54.607Z,3.83
2018-04-25T10:35:22.288Z,4.20
2018-04-25T10:37:50.008Z,3.70
2018-04-25T10:40:17.641Z,4.00
2018-04-25T10:42:46.091Z,4.20
2018-04-25T10:45:13.764Z,4.77
2018-04-25T10:47:42.203Z,4.57
2018-04-25T10:50:09.877Z,4.30
2018-04-25T10:52:37.540Z,3.80
2018-04-25T10:55:05.229Z,3.97
2018-04-25T10:57:33.673Z,4.27
2018-04-25T11:00:01.364Z,4.23
2018-04-25T11:02:29.853Z,3.80
2018-04-25T11:04:57.575Z,4.27
2018-04-25T11:07:25.261Z,4.73
2018-04-25T11:09:53.678Z,4.23
2018-04-25T11:12:21.351Z,4.33
2018-04-25T11:14:49.028Z,4.20
2018-04-25T11:17:16.709Z,3.97
2018-04-25T11:19:44.392Z,4.50
2018-04-25T11:22:12.810Z,4.07
2018-04-25T11:24:40.462Z,3.80
2018-04-25T11:27:08.144Z,3.90
2018-04-25T11:29:35.816Z,4.23
2018-04-25T11:32:03.479Z,3.57
2018-04-25T11:34:31.154Z,4.40
2018-04-25T11:36:59.606Z,4.37
2018-04-25T11:39:27.254Z,4.13
2018-04-25T11:41:54.932Z,4.03
2018-04-25T11:44:22.584Z,4.47
2018-04-25T11:46:50.294Z,3.93
2018-04-25T11:49:18.762Z,3.57
2018-04-25T11:51:46.447Z,4.90
2018-04-25T11:54:14.123Z,4.20
2018-04-25T11:56:41.834Z,4.83
2018-04-25T11:59:09.505Z,4.27
2018-04-25T12:01:37.921Z,4.00
2018-04-25T12:04:05.685Z,4.13
2018-04-25T12:06:33.363Z,4.30
2018-04-25T12:09:01.002Z,4.17
2018-04-25T12:11:28.685Z,3.70
2018-04-25T12:13:56.381Z,3.20
2018-04-25T12:16:24.067Z,3.83
2018-04-25T12:18:51.755Z,4.00
2018-04-25T12:21:19.405Z,4.50
2018-04-25T12:23:47.047Z,4.47
2018-04-25T12:26:14.702Z,3.97
2018-04-25T12:28:43.136Z,4.10
2018-04-25T12:31:10.794Z,4.20
2018-04-25T12:33:38.501Z,4.20
2018-04-25T12:36:06.979Z,3.77
2018-04-25T12:38:36.388Z,3.73
2018-04-25T12:41:04.844Z,3.53
2018-04-25T12:43:32.532Z,3.90
2018-04-25T12:46:00.168Z,4.00
2018-04-25T12:48:28.614Z,4.17
2018-04-25T12:50:56.267Z,3.93
2018-04-25T12:53:23.907Z,4.40
2018-04-25T12:55:51.587Z,3.60
2018-04-25T12:58:19.255Z,4.47
2018-04-25T13:00:47.003Z,4.53
2018-04-25T13:03:14.766Z,3.93
2018-04-25T13:05:42.498Z,3.93
2018-04-25T13:08:10.174Z,4.30
2018-04-25T13:10:37.883Z,3.50
2018-04-25T13:13:05.640Z,3.37
2018-04-25T13:15:33.334Z,4.40
2018-04-25T13:18:01.049Z,3.70
2018-04-25T13:20:28.768Z,4.10
2018-04-25T13:22:56.416Z,5.10
2018-04-25T13:25:24.862Z,4.20
2018-04-25T13:27:52.542Z,4.00
2018-04-25T13:30:20.963Z,4.70
2018-04-25T13:32:49.401Z,4.40
2018-04-25T13:35:17.839Z,3.87
2018-04-25T13:37:45.561Z,4.57
2018-04-25T13:40:13.205Z,4.30
2018-04-25T13:42:40.943Z,4.70
2018-04-25T13:45:08.624Z,4.27
2018-04-25T13:47:37.076Z,4.60
2018-04-25T13:50:04.773Z,3.97
2018-04-25T13:52:32.475Z,4.00
2018-04-25T13:55:00.116Z,3.57
2018-04-25T13:57:27.809Z,4.70
2018-04-25T13:59:55.484Z,3.90
2018-04-25T14:02:23.148Z,5.10
2018-04-25T14:04:50.820Z,3.33
2018-04-25T14:07:19.254Z,4.30
2018-04-25T14:09:46.977Z,4.80
2018-04-25T14:12:15.395Z,4.63
2018-04-25T14:14:43.045Z,4.33
2018-04-25T14:17:10.720Z,5.00
2018-04-25T14:19:38.378Z,4.37
2018-04-25T14:22:06.025Z,5.37
2018-04-25T14:24:33.748Z,4.60
2018-04-25T14:27:02.192Z,4.93
2018-04-25T14:29:29.847Z,4.33
2018-04-25T14:31:57.515Z,4.83
2018-04-25T14:34:25.195Z,5.07
2018-04-25T14:36:52.869Z,4.23
2018-04-25T14:39:21.301Z,4.77
2018-04-25T14:41:48.958Z,5.50
2018-04-25T14:44:16.585Z,4.50
2018-04-25T14:46:44.263Z,4.87
2018-04-25T14:49:11.942Z,5.10
2018-04-25T14:51:39.572Z,6.00
2018-04-25T14:54:07.260Z,5.30
2018-04-25T14:56:34.929Z,4.20
2018-04-25T14:59:02.615Z,4.53
2018-04-25T15:01:31.086Z,4.83
2018-04-25T15:03:58.729Z,4.50
2018-04-25T15:06:26.411Z,4.67
2018-04-25T15:08:54.084Z,4.77
2018-04-25T15:11:21.750Z,4.77
2018-04-25T15:13:50.192Z,5.27
2018-04-25T15:16:17.863Z,3.63
2018-04-25T15:18:45.509Z,4.73
2018-04-25T15:21:13.205Z,3.90
2018-04-25T15:23:41.084Z,4.40
2018-04-25T15:26:08.731Z,4.13
2018-04-25T15:28:37.159Z,4.50
2018-04-25T15:31:04.818Z,4.23
2018-04-25T15:33:32.451Z,5.10
2018-04-25T15:36:00.118Z,4.90
2018-04-25T15:38:27.806Z,4.00
2018-04-25T15:40:55.462Z,4.80
2018-04-25T15:43:23.922Z,4.87
2018-04-25T15:45:51.591Z,4.50
2018-04-25T15:48:19.272Z,4.77
2018-04-25T15:50:46.954Z,4.50
2018-04-25T15:53:14.682Z,4.97
2018-04-25T15:55:42.328Z,4.03
2018-04-25T15:58:10.023Z,5.10
2018-04-25T16:00:37.703Z,4.70
2018-04-25T16:03:06.108Z,4.63
2018-04-25T16:05:33.802Z,4.53
2018-04-25T16:08:01.458Z,4.97
2018-04-25T16:10:29.166Z,4.87
2018-04-25T16:12:57.589Z,4.67
2018-04-25T16:15:25.288Z,4.83
2018-04-25T16:17:52.940Z,4.93
2018-04-25T16:20:20.595Z,5.43
2018-04-25T16:22:48.282Z,5.07
2018-04-25T16:25:16.689Z,4.87
2018-04-25T16:27:44.354Z,4.40
2018-04-25T16:30:12.019Z,4.83
2018-04-25T16:32:39.678Z,4.60
2018-04-25T16:35:07.363Z,5.20
2018-04-25T16:37:35.023Z,5.20
2018-04-25T16:40:02.673Z,5.33
2018-04-25T16:42:30.334Z,5.93
2018-04-25T16:44:58.001Z,5.60
2018-04-25T16:47:25.636Z,4.90
2018-04-25T16:49:53.302Z,5.77
2018-04-25T16:52:20.962Z,4.80
2018-04-25T16:54:48.629Z,5.40
2018-04-25T16:57:16.301Z,5.33
2018-04-25T16:59:44.788Z,5.20
2018-04-25T17:02:12.446Z,5.60
2018-04-25T17:04:40.131Z,5.57
2018-04-25T17:07:07.799Z,5.30
2018-04-25T17:09:36.273Z,6.50
2018-04-25T17:12:03.951Z,5.10
2018-04-25T17:14:32.395Z,5.90
2018-04-25T17:17:00.048Z,5.97
2018-04-25T17:19:27.780Z,5.40
2018-04-25T17:21:55.447Z,5.80
2018-04-25T17:24:23.099Z,6.00
2018-04-25T17:26:50.794Z,4.70
2018-04-25T17:29:18.497Z,5.93
2018-04-25T17:31:46.951Z,5.20
2018-04-25T17:34:14.627Z,4.73
2018-04-25T17:36:43.470Z,5.50
2018-04-25T17:39:11.312Z,6.13
2018-04-25T17:41:38.999Z,5.13
2018-04-25T17:44:06.688Z,5.40
2018-04-25T17:46:34.331Z,6.27
2018-04-25T17:49:02.074Z,5.13
2018-04-25T17:51:29.774Z,5.20
2018-04-25T17:53:57.442Z,4.70
2018-04-25T17:56:25.202Z,5.40
2018-04-25T17:58:52.994Z,5.40
2018-04-25T18:01:20.931Z,4.97
2018-04-25T18:03:48.811Z,4.70
2018-04-25T18:06:16.842Z,5.20
2018-04-25T18:08:46.117Z,5.10
2018-04-25T18:11:13.915Z,5.37
2018-04-25T18:13:41.775Z,5.00
2018-04-25T18:16:10.515Z,5.03
2018-04-25T18:18:38.424Z,5.40
2018-04-25T18:21:07.199Z,5.03
2018-04-25T18:23:35.969Z,4.97
2018-04-25T18:26:05.267Z,5.77
2018-04-25T18:28:33.323Z,5.43
2018-04-25T18:31:01.157Z,5.00
2018-04-25T18:33:29.054Z,5.37
2018-04-25T18:35:56.730Z,4.97
2018-04-25T18:38:24.374Z,5.50
2018-04-25T18:40:52.095Z,5.80
2018-04-25T18:43:20.562Z,5.67
2018-04-25T18:45:49.048Z,6.00
2018-04-25T18:48:16.772Z,6.10
2018-04-25T18:50:44.732Z,5.10
2018-04-25T18:53:12.515Z,4.73
2018-04-25T18:55:40.290Z,4.83
2018-04-25T18:58:08.164Z,5.60
2018-04-25T19:00:36.009Z,4.60
2018-04-25T19:03:04.580Z,5.93
2018-04-25T19:05:32.443Z,4.43
2018-04-25T19:08:00.325Z,5.60
2018-04-25T19:10:28.005Z,5.53
2018-04-25T19:12:55.746Z,5.63
2018-04-25T19:15:23.522Z,5.53
2018-04-25T19:17:51.227Z,5.67
2018-04-25T19:20:19.810Z,6.20
2018-04-25T19:22:47.698Z,5.37
2018-04-25T19:25:17.213Z,5.30
2018-04-25T19:27:45.199Z,5.50
2018-04-25T19:30:13.137Z,5.50
2018-04-25T19:32:41.036Z,5.13
2018-04-25T19:35:09.024Z,5.73
2018-04-25T19:37:37.041Z,6.47
2018-04-25T19:40:04.806Z,5.23
2018-04-25T19:42:32.558Z,4.93
2018-04-25T19:45:00.275Z,5.87
2018-04-25T19:47:28.696Z,5.17
2018-04-25T19:49:56.500Z,6.13
2018-04-25T19:52:24.954Z,5.40
2018-04-25T19:54:52.713Z,5.70
2018-04-25T19:57:20.559Z,5.40
2018-04-25T19:59:48.471Z,4.97
2018-04-25T20:02:17.049Z,5.40
2018-04-25T20:04:44.944Z,5.43
2018-04-25T20:07:12.917Z,5.63
2018-04-25T20:09:40.846Z,5.30
2018-04-25T20:12:09.628Z,4.60
2018-04-25T20:14:37.538Z,4.67
2018-04-25T20:17:05.498Z,4.90
2018-04-25T20:19:33.460Z,5.23
2018-04-25T20:22:01.327Z,4.80
2018-04-25T20:24:29.078Z,5.30
2018-04-25T20:26:57.610Z,5.03
2018-04-25T20:29:25.373Z,5.60
2018-04-25T20:31:53.006Z,5.00
2018-04-25T20:34:20.670Z,5.40
2018-04-25T20:36:48.340Z,5.77
2018-04-25T20:39:15.996Z,5.13
2018-04-25T20:41:44.567Z,5.80
2018-04-25T20:44:13.691Z,5.67
2018-04-25T20:46:41.517Z,6.23
2018-04-25T20:49:09.597Z,5.83
2018-04-25T20:51:37.588Z,5.73
2018-04-25T20:54:05.715Z,5.73
2018-04-25T20:56:34.906Z,5.97
2018-04-25T20:59:02.740Z,5.77
2018-04-25T21:01:31.595Z,5.43
2018-04-25T21:04:00.148Z,6.17
2018-04-25T21:06:28.049Z,5.03
2018-04-25T21:08:56.752Z,4.97
2018-04-25T21:11:25.158Z,5.20
2018-04-25T21:13:53.612Z,5.20
2018-04-25T21:16:21.954Z,6.20
2018-04-25T21:18:49.933Z,5.70
2018-04-25T21:21:17.599Z,7.10
2018-04-25T21:23:47.135Z,6.10
2018-04-25T21:26:17.517Z,6.70
2018-04-25T21:28:45.479Z,6.60
2018-04-25T21:31:13.141Z,7.57
2018-04-25T21:33:41.208Z,7.00
2018-04-25T21:36:08.897Z,6.70
2018-04-25T21:38:37.872Z,7.73
2018-04-25T21:41:05.912Z,8.30
2018-04-25T21:43:34.949Z,8.50
2018-04-25T21:46:02.630Z,8.70
2018-04-25T21:48:31.086Z,8.90
2018-04-25T21:50:58.801Z,8.40
2018-04-25T21:53:26.450Z,8.83
2018-04-25T21:55:54.122Z,8.90
2018-04-25T21:58:21.838Z,9.40
2018-04-25T22:00:49.622Z,10.20
2018-04-25T22:03:17.340Z,9.37
2018-04-25T22:05:45.070Z,8.93
2018-04-25T22:08:12.759Z,10.20
2018-04-25T22:10:40.473Z,9.53
2018-04-25T22:13:08.183Z,10.40
2018-04-25T22:15:35.833Z,9.00
2018-04-25T22:18:03.531Z,9.63
2018-04-25T22:20:31.207Z,9.70
2018-04-25T22:22:58.860Z,9.57
2018-04-25T22:25:26.551Z,8.43
2018-04-25T22:27:54.217Z,9.33
2018-04-25T22:30:21.870Z,8.97
2018-04-25T22:32:50.599Z,9.40
2018-04-25T22:35:18.287Z,9.40
2018-04-25T22:37:45.970Z,9.33
2018-04-25T22:40:13.686Z,9.03
2018-04-25T22:42:41.371Z,10.77
2018-04-25T22:45:09.771Z,12.13
2018-04-25T22:47:37.469Z,10.70
2018-04-25T22:50:05.166Z,11.60
2018-04-25T22:52:33.591Z,12.40
2018-04-25T22:55:01.251Z,11.07
2018-04-25T22:57:28.933Z,7.10
2018-04-25T22:59:56.595Z,7.20
2018-04-25T23:02:24.317Z,7.90
2018-04-25T23:04:51.982Z,7.23
2018-04-25T23:07:19.624Z,7.07
2018-04-25T23:09:47.309Z,6.47
2018-04-25T23:12:15.016Z,7.37
2018-04-25T23:14:42.670Z,7.73
2018-04-25T23:17:10.364Z,8.53
2018-04-25T23:19:38.814Z,8.60
2018-04-25T23:22:06.447Z,8.77
2018-04-25T23:24:34.139Z,7.77
2018-04-25T23:27:01.851Z,8.00
2018-04-25T23:29:29.591Z,7.60
2018-04-25T23:31:57.277Z,6.60
2018-04-25T23:34:24.974Z,6.20
2018-04-25T23:36:52.645Z,6.13
2018-04-25T23:39:20.313Z,6.53
2018-04-25T23:41:48.748Z,6.40
2018-04-25T23:44:16.402Z,5.90
2018-04-25T23:46:44.090Z,6.40
2018-04-25T23:49:11.761Z,5.27
2018-04-25T23:51:39.398Z,5.00
2018-04-25T23:54:07.068Z,4.90
2018-04-25T23:56:34.730Z,5.00
2018-04-25T23:59:02.376Z,5.50
